Caldwell, Ohio
Current Conditions -  °F | °C
As of 3:53 PM on Friday 24 Oct 2014 (Local Time) from KZZV Reporting Station
Clear Clear  
Wind Chill: 62°   Ceiling: Unl
Heat Index: 62°   Visibility: 10mi
Dew Point: 38°   Wind: 3mph
Humidity: 41%   Direction: NA
Pressure: 30.04"   Gusts: NA
Location:  39.75°N, 81.52°W
Report Text: KZZV 241953Z AUTO VRB03KT 10SM CLR 17/03 A3004 RMK AO2 SLP172 T01670033
Loading
Personal Weather Stations






























Interactive Weather Map
Tropical Storm Tracking
New forecast layout! Learn more

10-Day Weather Forecast

Advertisements
Track Severe Weather on mobile